Delaware, OH

5:08 AM EST on January 19, 2017 (GMT -0500)
Delaware Municipal

Weather History for KDLZ - May, 2013

Change the Weather History Date:

Thursday, May 23, 2013

  Actual Average Record
Temperature  
Mean Temperature 58 °F -  
Max Temperature 71 °F 74 °F 90 °F (1939)
Min Temperature 44 °F 50 °F 33 °F (1963)
Degree Days  
Heating Degree Days 6    
Growing Degree Days 8 (Base 50)    
Moisture  
Dew Point 55 °F    
Average Humidity 82    
Maximum Humidity 94    
Minimum Humidity 56    
Precipitation  
Precipitation 0.37 in - - ()
Sea Level Pressure  
Sea Level Pressure 29.87 in    
Wind  
Wind Speed 9 mph (West)    
Max Wind Speed 25 mph    
Max Gust Speed 30 mph    
Visibility 9 miles    
Events Rain    
Averages and records for this station are not official NWS values.
T = Trace of Precipitation, MM = Missing Value Source: NWS Daily Summary

Daily Weather History Graph

Daily Weather History Graph

Search for Another Location

Airport or City:

Trip Planner

Search our weather history database for the weather conditions in past years. The results will help you decide how hot, cold, wet, or windy it might be!

Date:

Astronomy

May. 23, 2013 Rise Set
Actual Time 6:09 AM EDT 8:49 PM EDT
Civil Twilight 5:38 AM EDT 9:20 PM EDT
Nautical Twilight 4:58 AM EDT 10:00 PM EDT
Astronomical Twilight 4:14 AM EDT 10:45 PM EDT
Moon 7:20 PM EDT (5/23) 4:54 AM EDT (5/23)
Length of Visible Light 15h 42m
Length of Day
14h 39m
Waxing Gibbous, 97% of the Moon is Illuminated
May 23
Waxing Gibbous
May 25
Full
May 31
Last Quarter
Jun 8
New
Jun 16
First Quarter

Hourly Weather History & Observations

Time (EDT) Temp. Windchill Dew Point Humidity Pressure Visibility Wind Dir Wind Speed Gust Speed Precip Events Conditions
12:00 AM 62.6 °F - 59.0 °F 88% 29.79 in 10.0 mi SSW 6.9 mph - N/A   Scattered Clouds
12:19 AM 62.6 °F - 59.0 °F 88% 29.80 in 10.0 mi West 4.6 mph - N/A   Clear
12:39 AM 60.8 °F - 59.0 °F 94% 29.80 in 10.0 mi SW 5.8 mph - N/A   Clear
1:00 AM 60.8 °F - 59.0 °F 94% 29.80 in 10.0 mi WSW 4.6 mph - N/A   Scattered Clouds
1:19 AM 60.8 °F - 59.0 °F 94% 29.80 in 10.0 mi SSW 5.8 mph - N/A   Mostly Cloudy
1:40 AM 62.6 °F - 60.8 °F 94% 29.80 in 10.0 mi SSW 4.6 mph - N/A   Mostly Cloudy
2:00 AM 62.6 °F - 60.8 °F 94% 29.80 in 7.0 mi SSW 8.1 mph - N/A   Mostly Cloudy
2:19 AM 62.6 °F - 60.8 °F 94% 29.80 in 7.0 mi SSW 6.9 mph - N/A   Overcast
2:40 AM 62.6 °F - 60.8 °F 94% 29.80 in 5.0 mi SW 9.2 mph - N/A   Overcast
2:59 AM 62.6 °F - 60.8 °F 94% 29.80 in 7.0 mi WSW 10.4 mph - N/A Rain Light Rain
3:19 AM 62.6 °F - 59.0 °F 88% 29.80 in 10.0 mi West 4.6 mph - N/A   Overcast
3:40 AM 62.6 °F - 59.0 °F 88% 29.80 in 10.0 mi SW 3.5 mph - N/A   Overcast
3:59 AM 60.8 °F - 59.0 °F 94% 29.80 in 10.0 mi Calm Calm - N/A   Overcast
4:19 AM 60.8 °F - 57.2 °F 88% 29.80 in 10.0 mi SSW 6.9 mph - N/A   Overcast
4:40 AM 60.8 °F - 57.2 °F 88% 29.80 in 10.0 mi SW 6.9 mph - N/A   Mostly Cloudy
4:59 AM 60.8 °F - 55.4 °F 82% 29.80 in 10.0 mi SW 5.8 mph - N/A   Scattered Clouds
5:19 AM 59.0 °F - 55.4 °F 88% 29.80 in 10.0 mi SW 6.9 mph - N/A   Clear
5:40 AM 59.0 °F - 55.4 °F 88% 29.81 in 10.0 mi SW 6.9 mph - N/A   Scattered Clouds
5:59 AM 59.0 °F - 55.4 °F 88% 29.81 in 10.0 mi SW 5.8 mph - N/A   Scattered Clouds
6:20 AM 59.0 °F - 55.4 °F 88% 29.81 in 10.0 mi SSW 3.5 mph - N/A   Mostly Cloudy
6:39 AM 59.0 °F - 55.4 °F 88% 29.82 in 10.0 mi SW 3.5 mph - N/A   Overcast
6:59 AM 60.8 °F - 57.2 °F 88% 29.83 in 10.0 mi SW 5.8 mph - N/A Rain Light Rain
7:20 AM 60.8 °F - 57.2 °F 88% 29.83 in 7.0 mi SSW 3.5 mph - N/A   Light Drizzle
7:39 AM 60.8 °F - 59.0 °F 94% 29.84 in 7.0 mi SW 5.8 mph - N/A   Overcast
7:59 AM 62.6 °F - 59.0 °F 88% 29.84 in 7.0 mi SW 5.8 mph - N/A   Overcast
8:20 AM 62.6 °F - 59.0 °F 88% 29.84 in 7.0 mi WSW 9.2 mph - N/A   Overcast
8:39 AM 62.6 °F - 59.0 °F 88% 29.84 in 7.0 mi WSW 8.1 mph - N/A   Overcast
9:00 AM 62.6 °F - 59.0 °F 88% 29.85 in 7.0 mi WSW 5.8 mph - N/A   Overcast
9:20 AM 64.4 °F - 59.0 °F 83% 29.85 in 7.0 mi WSW 10.4 mph - N/A   Overcast
9:39 AM 64.4 °F - 59.0 °F 83% 29.85 in 10.0 mi SW 9.2 mph - N/A   Overcast
10:00 AM 66.2 °F - 59.0 °F 78% 29.85 in 10.0 mi WSW 12.7 mph - N/A   Overcast
10:20 AM 66.2 °F - 59.0 °F 78% 29.85 in 10.0 mi WSW 9.2 mph - N/A   Mostly Cloudy
10:39 AM 64.4 °F - 57.2 °F 77% 29.85 in 10.0 mi SW 10.4 mph - N/A   Overcast
11:00 AM 68.0 °F - 57.2 °F 68% 29.85 in 10.0 mi WSW 10.4 mph 18.4 mph N/A   Mostly Cloudy
11:20 AM 68.0 °F - 57.2 °F 68% 29.85 in 10.0 mi West 8.1 mph - N/A   Mostly Cloudy
11:39 AM 68.0 °F - 55.4 °F 64% 29.85 in 10.0 mi WSW 10.4 mph 17.3 mph N/A   Mostly Cloudy
12:00 PM 69.8 °F - 55.4 °F 60% 29.84 in 10.0 mi WSW 12.7 mph 19.6 mph N/A   Mostly Cloudy
12:20 PM 69.8 °F - 55.4 °F 60% 29.84 in 10.0 mi SW 15.0 mph - N/A   Scattered Clouds
12:39 PM 69.8 °F - 55.4 °F 60% 29.84 in 10.0 mi West 13.8 mph 19.6 mph N/A   Mostly Cloudy
1:00 PM 69.8 °F - 53.6 °F 56% 29.83 in 10.0 mi WSW 16.1 mph 21.9 mph N/A   Mostly Cloudy
1:20 PM 69.8 °F - 55.4 °F 60% 29.83 in 10.0 mi WSW 11.5 mph 17.3 mph N/A   Mostly Cloudy
1:39 PM 71.6 °F - 55.4 °F 57% 29.83 in 10.0 mi WSW 13.8 mph - N/A   Mostly Cloudy
2:00 PM 68.0 °F - 55.4 °F 64% 29.84 in 10.0 mi West 12.7 mph 19.6 mph N/A   Overcast
2:20 PM 68.0 °F - 55.4 °F 64% 29.83 in 10.0 mi West 10.4 mph - N/A   Overcast
2:39 PM 68.0 °F - 53.6 °F 60% 29.83 in 10.0 mi WSW 11.5 mph 19.6 mph N/A Rain Light Rain
3:00 PM 66.2 °F - 55.4 °F 68% 29.83 in 10.0 mi West 15.0 mph - N/A Rain Light Rain
3:19 PM 68.0 °F - 53.6 °F 60% 29.84 in 10.0 mi West 19.6 mph 24.2 mph N/A   Mostly Cloudy
3:39 PM 66.2 °F - 53.6 °F 64% 29.85 in 10.0 mi West 12.7 mph 23.0 mph N/A   Overcast
4:00 PM 68.0 °F - 55.4 °F 64% 29.85 in 10.0 mi West 9.2 mph - N/A   Overcast
4:19 PM 64.4 °F - 55.4 °F 73% 29.86 in 7.0 mi WNW 25.3 mph 29.9 mph N/A Rain Light Rain
4:39 PM 60.8 °F - 55.4 °F 82% 29.87 in 10.0 mi West 11.5 mph - 0.05 in Rain Light Rain
5:00 PM 60.8 °F - 55.4 °F 82% 29.87 in 10.0 mi WSW 6.9 mph - N/A Rain Light Rain
5:19 PM 60.8 °F - 57.2 °F 88% 29.87 in 7.0 mi WSW 10.4 mph - N/A   Drizzle
5:39 PM 60.8 °F - 55.4 °F 82% 29.88 in 10.0 mi West 8.1 mph - 0.01 in Rain Light Rain
6:00 PM 60.8 °F - 55.4 °F 82% 29.89 in 4.0 mi NW 11.5 mph - 0.01 in Rain Heavy Rain
6:19 PM 59.0 °F - 55.4 °F 88% 29.90 in 1.5 mi NNW 15.0 mph 24.2 mph 0.29 in Rain Heavy Rain
6:39 PM 55.4 °F - 51.8 °F 88% 29.91 in 10.0 mi NNW 11.5 mph 18.4 mph 0.31 in   Overcast
7:00 PM 53.6 °F - 51.8 °F 94% 29.92 in 5.0 mi NNW 13.8 mph 18.4 mph N/A   Overcast
7:19 PM 51.8 °F - 50.0 °F 94% 29.94 in 2.0 mi North 16.1 mph 26.5 mph N/A   Overcast
7:39 PM 51.8 °F - 48.2 °F 88% 29.95 in 5.0 mi North 12.7 mph 23.0 mph N/A   Overcast
8:00 PM 50.0 °F - 46.4 °F 87% 29.97 in 7.0 mi North 13.8 mph 21.9 mph N/A   Overcast
8:19 PM 50.0 °F - 46.4 °F 87% 29.98 in 10.0 mi North 13.8 mph 21.9 mph N/A   Overcast
8:39 PM 48.2 °F - 44.6 °F 87% 30.00 in 7.0 mi North 15.0 mph 23.0 mph N/A   Overcast
9:00 PM 48.2 °F - 44.6 °F 87% 30.00 in 10.0 mi North 16.1 mph 20.7 mph N/A   Overcast
9:19 PM 46.4 °F 39.8 °F 44.6 °F 93% 30.01 in 7.0 mi North 16.1 mph 21.9 mph N/A   Overcast
9:40 PM 46.4 °F 40.1 °F 44.6 °F 93% 30.02 in 10.0 mi North 15.0 mph 25.3 mph N/A   Overcast
10:00 PM 46.4 °F 39.5 °F 42.8 °F 87% 30.03 in 10.0 mi North 17.3 mph 23.0 mph N/A   Overcast
10:19 PM 46.4 °F 40.4 °F 42.8 °F 87% 30.04 in 10.0 mi NNW 13.8 mph 20.7 mph N/A   Overcast
10:40 PM 46.4 °F 40.4 °F 42.8 °F 87% 30.05 in 10.0 mi North 13.8 mph 19.6 mph N/A   Overcast
11:00 PM 46.4 °F 40.7 °F 42.8 °F 87% 30.06 in 10.0 mi North 12.7 mph 19.6 mph N/A   Overcast
11:19 PM 46.4 °F 39.8 °F 42.8 °F 87% 30.06 in 10.0 mi NNW 16.1 mph 20.7 mph N/A   Overcast
11:40 PM 44.6 °F 36.9 °F 42.8 °F 93% 30.07 in 10.0 mi NNW 18.4 mph 26.5 mph N/A   Overcast